Cripple Creek, Colorado
Current Conditions -  °F | °C
As of 2:56 AM on Sunday 25 Jan 2015 (Local Time) from KCWN Reporting Station
Clear Clear  
Wind Chill: 27°   Ceiling: Unl
Heat Index: 35°   Visibility: 10mi
Dew Point: 21°   Wind: 13mph
Humidity: 57%   Direction: 170°S
Pressure: 29.81"   Gusts: NA
Location:  38.75°N, 105.18°W
Report Text: KCWN 250956Z AUTO 17011KT 10SM CLR 02/M06 A2981 RMK AO2 SLP083 T00181060
Loading
Personal Weather Stations






























Interactive Weather Map New forecast layout! Learn more

10-Day Weather Forecast

Advertisements
Track Severe Weather on mobile